Latest Coastal Weather Observations for Devonport Airport

IDV60701

Issued at 3:21 pm EST Thursday 2 July 2015 (issued every 10 minutes, with the page automatically refreshed every 10 minutes)

About coastal observations | Map of coastal stations | Coastal observations for VIC | Marine services | Other Formats
Station Details ID: 091126 Name: DEVONPORT AIRPORT Lat: -41.17 Lon: 146.43 Height: 8.0 m
Data from the previous 72 hours. | See also: Recent months at Devonport Airport
Date/Time
EST
Temp

°C
Wind Pressure Rain
since 9am
mm
Weather Cloud Vis
km
Sea
Height
m
Swell
Dir
 
Speed
knots
Gust
knots
hPa Trend Height
m
Period
s
Dir
02/03:00pm 10.0 SW 17 25 1018.5 - 0.0 - - 10 - - - -
02/02:56pm 10.0 SW 15 25 1018.3 - 0.0 - - 10 - - - -
02/02:30pm 10.5 SW 13 19 1017.7 - 0.0 - - 10 - - - -
02/02:00pm 10.5 WSW 17 25 1017.6 - 0.0 - - 10 - - - -
02/01:30pm 10.4 WSW 15 21 1017.1 - 0.0 - - 10 - - - -
02/01:00pm 10.3 WSW 10 15 1017.0 - 0.0 - - 10 - - - -
02/12:30pm 10.1 WSW 11 16 1017.0 - 0.0 - - 10 - - - -
02/12:00pm 9.5 SW 13 19 1016.5 - 0.0 - - 10 - - - -
02/11:30am 9.6 SW 12 16 1016.3 - 0.0 - - 10 - - - -
02/11:00am 8.9 WSW 10 14 1016.5 - 0.0 - - 10 - - - -
02/10:30am 8.1 W 10 12 1016.5 - 0.0 - - 10 - - - -
02/10:00am 7.5 W 10 13 1015.8 - 0.0 - - 10 - - - -
02/09:30am 6.8 W 13 16 1014.8 - 0.0 - - 10 - - - -
02/09:00am 5.3 WSW 9 11 1015.0 - 0.8 - Cloudy 10 - - - -
02/08:30am 5.7 SW 5 7 1015.0 - 0.8 - - 10 - - - -
02/08:00am 5.6 W 7 10 1013.9 - 0.8 - Cloudy 10 - - - -
02/07:30am 5.9 WSW 9 15 1013.7 - 0.8 - Partly cloudy 10 - - - -
02/07:00am 4.9 W 8 9 1013.4 - 0.8 - Partly cloudy 10 - - - -
02/06:30am 5.0 WSW 6 7 1012.9 - 0.8 - Partly cloudy 10 - - - -
02/06:00am 4.9 SSW 6 8 1012.7 - 0.8 - Cloudy 10 - - - -
02/05:30am 5.0 WSW 6 8 1012.1 - 0.8 - Partly cloudy 10 - - - -
02/05:00am 5.7 SW 5 10 1011.7 - 0.8 - Partly cloudy 10 - - - -
02/04:30am 6.7 SW 9 12 1011.7 - 0.8 - Partly cloudy 10 - - - -
02/04:00am 7.4 WSW 14 20 1011.3 - 0.8 - - 10 - - - -
02/03:30am 7.3 WSW 12 17 1011.2 - 0.8 - - 10 - - - -
02/03:00am 6.8 W 10 13 1011.0 - 0.8 - - 10 - - - -
02/02:30am 7.3 W 12 17 1011.0 - 0.8 - - 10 - - - -
02/02:00am 7.4 W 11 14 1010.6 - 0.8 - Partly cloudy 10 - - - -
02/01:30am 8.2 WSW 13 19 1010.6 - 0.8 - - 10 - - - -
02/01:00am 8.8 WSW 15 21 1010.5 - 0.8 - Partly cloudy 10 - - - -
02/12:45am 9.5 WSW 15 29 1010.2 - 0.8 - Partly cloudy 10 - - - -
02/12:30am 8.2 W 11 13 1010.2 - 0.8 - - 10 - - - -
02/12:00am 9.3 W 15 21 1009.8 - 0.8 - - 10 - - - -
 
Date/Time
EST
Temp

°C
Wind Pressure Rain
since 9am
mm
Weather Cloud Vis
km
Sea
Height
m
Swell
Dir
 
Speed
knots
Gust
knots
hPa Trend Height
m
Period
s
Dir
01/11:30pm 9.9 WNW 20 25 1009.8 - 0.8 - - 10 - - - -
01/11:00pm 10.5 WNW 20 25 1009.9 - 0.8 - Partly cloudy 10 - - - -
01/10:30pm 10.5 WNW 17 20 1009.8 - 0.8 - Partly cloudy 10 - - - -
01/10:00pm 10.9 WNW 19 25 1009.9 - 0.8 - Cloudy 10 - - - -
01/09:30pm 11.0 W 21 29 1010.0 - 0.8 - Partly cloudy 9 - - - -
01/09:26pm 11.2 W 22 32 1009.9 - 0.6 - Partly cloudy 9 - - - -
01/09:21pm 11.3 W 30 50 1010.0 - 0.6 - Partly cloudy 9 - - - -
01/09:06pm 12.3 WNW 33 43 1009.6 - 0.4 - Partly cloudy 5 - - - -
01/09:00pm 12.4 WNW 32 40 1009.7 - 0.4 Drizzle Mostly cloudy 6 - - - -
01/08:59pm 12.4 WNW 32 40 1009.7 - 0.4 - Cloudy 6 - - - -
01/08:41pm 12.9 NW 29 39 1009.9 - 0.2 - Cloudy 10 - - - -
01/08:30pm 12.9 NW 28 37 1010.0 - 0.2 - Partly cloudy 10 - - - -
01/08:13pm 12.6 NW 27 38 1010.3 - 0.2 - Partly cloudy 10 - - - -
01/08:00pm 12.4 NW 26 35 1010.4 - 0.2 - Partly cloudy 10 - - - -
01/07:30pm 12.3 NW 24 31 1011.4 - 0.2 - Partly cloudy 10 - - - -
01/07:00pm 11.9 WNW 24 30 1012.4 - 0.2 - Partly cloudy 10 - - - -
01/06:30pm 11.8 WNW 23 31 1012.9 - 0.2 - Partly cloudy 10 - - - -
01/06:16pm 11.9 WNW 22 32 1013.4 - 0.2 - Partly cloudy 10 - - - -
01/06:00pm 11.6 NW 23 29 1013.3 - 0.2 Rain Partly cloudy 10 - - - -
01/05:30pm 11.4 NW 25 33 1013.9 - 0.0 - Partly cloudy 10 - - - -
01/05:00pm 12.4 NW 20 27 1014.3 - 0.0 - Partly cloudy 10 - - - -
01/04:30pm 12.0 NW 19 25 1014.8 - 0.0 - Partly cloudy 10 - - - -
01/04:00pm 12.1 NW 22 29 1015.3 - 0.0 - Partly cloudy 10 - - - -
01/03:30pm 12.5 WNW 23 28 1015.8 - 0.0 - Partly cloudy 10 - - - -
01/03:00pm 11.6 NW 26 40 1016.0 - 0.0 Showers Mostly cloudy 9 - - - -
01/02:52pm 12.2 NW 27 37 1015.8 - 0.0 - Partly cloudy 10 - - - -
01/02:30pm 13.0 NW 21 27 1016.1 - 0.0 - Partly cloudy 10 - - - -
01/02:00pm 12.6 NW 25 33 1016.6 - 0.0 - Cloudy 10 - - - -
01/01:30pm 12.5 NW 20 28 1017.7 - 0.0 - Partly cloudy 10 - - - -
01/01:00pm 12.4 NW 19 24 1018.4 - 0.0 - Partly cloudy 10 - - - -
01/12:30pm 13.0 NW 16 20 1018.9 - 0.0 - Partly cloudy 10 - - - -
01/12:00pm 12.4 NW 15 20 1019.9 - 0.0 - - 10 - - - -
01/11:30am 12.2 WNW 12 16 1020.8 - 0.0 - - 10 - - - -
01/11:00am 11.1 NW 6 7 1021.6 - 0.0 - Partly cloudy 10 - - - -
01/10:30am 9.8 WNW 4 7 1022.0 - 0.0 - Partly cloudy 10 - - - -
01/10:00am 7.1 W 4 6 1022.4 - 0.0 - Partly cloudy 10 - - - -
01/09:30am 6.4 S 5 6 1022.5 - 0.0 - Partly cloudy 10 - - - -
01/09:00am 4.7 S 5 6 1022.8 - 0.0 - Cloudy 10 - - - -
01/08:30am 3.9 SSE 3 5 1023.0 - 0.0 - Cloudy 10 - - - -
01/08:00am 2.0 S 7 8 1023.1 - 0.0 - Partly cloudy 10 - - - -
01/07:30am 1.9 S 6 7 1023.1 - 0.0 - Partly cloudy 10 - - - -
01/07:00am 2.1 SSE 7 9 1023.1 - 0.0 - Partly cloudy 10 - - - -
01/06:30am 2.1 S 4 5 1023.4 - 0.0 - Partly cloudy 10 - - - -
01/06:00am 2.4 S 6 7 1023.6 - 0.0 - Cloudy 10 - - - -
01/05:30am 1.3 S 7 8 1023.7 - 0.0 - Partly cloudy 10 - - - -
01/05:00am 1.6 S 6 7 1023.9 - 0.0 - - 10 - - - -
01/04:30am 1.8 SSE 4 6 1024.0 - 0.0 - Partly cloudy 10 - - - -
01/04:00am 2.3 SSW 3 4 1024.1 - 0.0 - Partly cloudy 10 - - - -
01/03:30am 2.4 S 8 9 1024.2 - 0.0 - - 10 - - - -
01/03:00am 1.3 SSW 6 7 1024.6 - 0.0 - - 10 - - - -
01/02:30am 2.3 SSE 4 5 1024.8 - 0.0 - - 10 - - - -
01/02:00am 1.6 S 4 6 1024.8 - 0.0 - - 10 - - - -
01/01:30am 2.1 S 4 6 1024.7 - 0.0 - - 10 - - - -
01/01:00am 2.1 S 6 7 1024.7 - 0.0 - - 10 - - - -
01/12:30am 2.0 S 4 5 1025.0 - 0.0 - - 10 - - - -
01/12:00am 2.3 S 5 6 1025.2 - 0.0 - - 10 - - - -
 
Date/Time
EST
Temp

°C
Wind Pressure Rain
since 9am
mm
Weather Cloud Vis
km
Sea
Height
m
Swell
Dir
 
Speed
knots
Gust
knots
hPa Trend Height
m
Period
s
Dir
30/11:30pm 2.5 S 5 7 1025.3 - 0.0 - - 10 - - - -
30/11:00pm 2.4 SW 4 5 1025.3 - 0.0 - - 10 - - - -
30/10:30pm 3.1 S 4 6 1025.3 - 0.0 - - 10 - - - -
30/10:00pm 3.0 S 5 7 1025.3 - 0.0 - - 10 - - - -
30/09:30pm 2.8 S 3 4 1025.2 - 0.0 - - 10 - - - -
30/09:00pm 3.3 SSW 4 6 1025.1 - 0.0 - - 10 - - - -
30/08:30pm 5.2 SSW 4 6 1025.2 - 0.0 - - 10 - - - -
30/08:00pm 6.5 SSW 1 4 1025.1 - 0.0 - - 10 - - - -
30/07:30pm 7.2 W 8 10 1025.0 - 0.0 - - 10 - - - -
30/07:00pm 7.8 WSW 7 8 1024.8 - 0.0 - - 10 - - - -
30/06:30pm 7.4 SW 5 6 1024.7 - 0.0 - - 10 - - - -
30/06:00pm 7.9 SSW 6 8 1024.6 - 0.0 - - 10 - - - -
30/05:30pm 7.6 SW 4 4 1024.4 - 0.0 - - 10 - - - -
30/05:00pm 9.8 SSW 2 5 1024.2 - 0.0 - - 10 - - - -
30/04:30pm 10.9 CALM 0 2 1024.1 - 0.0 - - 10 - - - -
30/04:00pm 11.3 ENE 4 5 1023.9 - 0.0 - - 10 - - - -
30/03:30pm 11.8 NE 5 6 1023.9 - 0.0 - - 10 - - - -
30/03:00pm 12.1 N 4 6 1024.0 - 0.0 - - 10 - - - -
30/02:30pm 12.1 NNW 4 5 1024.0 - 0.0 - - 10 - - - -
30/02:00pm 12.2 NW 2 4 1024.4 - 0.0 - - 10 - - - -
30/01:30pm 11.8 WNW 3 5 1024.6 - 0.0 - - 10 - - - -
30/01:00pm 11.4 WNW 3 5 1024.8 - 0.0 - - 10 - - - -
30/12:30pm 10.4 WNW 3 5 1025.1 - 0.0 - - 10 - - - -
30/12:00pm 10.5 CALM 0 1 1025.7 - 0.0 - - 10 - - - -
30/11:30am 8.6 SSE 3 5 1026.3 - 0.0 - - 10 - - - -
30/11:00am 8.1 SW 1 5 1026.7 - 0.0 - - 10 - - - -
30/10:30am 7.4 SSE 2 4 1027.0 - 0.0 - - 10 - - - -
30/10:00am 6.1 SSE 5 6 1026.9 - 0.0 - - 10 - - - -
30/09:30am 3.9 S 8 9 1026.9 - 0.0 - - 10 - - - -
30/09:00am 2.7 S 8 9 1026.7 - 0.0 - - 10 - - - -
30/08:30am 1.3 S 9 11 1026.5 - 0.0 - - 10 - - - -
30/08:00am 0.5 S 9 11 1026.5 - 0.0 - - 10 - - - -
30/07:30am 0.4 S 9 10 1026.4 - 0.0 - - 10 - - - -
30/07:00am 0.6 S 8 9 1026.4 - 0.0 - - 10 - - - -
30/06:30am 0.9 S 6 8 1026.1 - 0.0 - - 10 - - - -
30/06:04am 0.9 S 6 8 1025.9 - 0.0 - Partly cloudy 10 - - - -
30/06:00am 1.1 S 7 9 1025.9 - 0.0 - Mostly clear 10 - - - -
30/05:30am 1.4 S 8 10 1025.8 - 0.0 - - 3 - - - -
30/05:25am 1.7 S 8 9 1025.8 - 0.0 - - 5 - - - -
30/05:00am 2.0 S 9 11 1025.6 - 0.0 - - 10 - - - -
30/04:30am 1.6 S 7 10 1025.7 - 0.0 - - 10 - - - -
30/04:00am 1.6 S 7 9 1026.0 - 0.0 - - 10 - - - -
30/03:30am 1.6 S 7 8 1026.3 - 0.0 - - 10 - - - -
30/03:00am 2.3 SSW 7 8 1026.4 - 0.0 - - 10 - - - -
30/02:30am 2.5 S 6 9 1026.3 - 0.0 - - 10 - - - -
30/02:00am 2.4 SSW 6 8 1026.4 - 0.0 - - 10 - - - -
30/01:30am 3.2 S 7 9 1026.6 - 0.0 - - 10 - - - -
30/01:00am 2.6 S 6 7 1026.7 - 0.0 - - 10 - - - -
30/12:30am 5.0 SW 4 5 1026.8 - 0.0 - - 10 - - - -
30/12:00am 4.5 SW 5 6 1027.0 - 0.0 - - 10 - - - -
 
Date/Time
EST
Temp

°C
Wind Pressure Rain
since 9am
mm
Weather Cloud Vis
km
Sea
Height
m
Swell
Dir
 
Speed
knots
Gust
knots
hPa Trend Height
m
Period
s
Dir
29/11:30pm 6.0 WSW 4 6 1027.0 - 0.0 - - 10 - - - -
29/11:00pm 6.3 W 6 7 1026.9 - 0.0 - - 10 - - - -
29/10:30pm 6.7 WSW 7 9 1027.0 - 0.0 - - 10 - - - -
29/10:00pm 8.3 W 11 13 1027.1 - 0.0 - - 10 - - - -
29/09:30pm 6.5 W 8 10 1027.3 - 0.0 - - 10 - - - -
29/09:00pm 8.0 WSW 5 6 1027.4 - 0.0 - - 10 - - - -
29/08:30pm 8.5 WSW 5 7 1027.5 - 0.0 - - 10 - - - -
29/08:00pm 8.7 WSW 6 7 1027.5 - 0.0 - - 10 - - - -
29/07:30pm 8.8 W 8 9 1027.6 - 0.0 - - 10 - - - -
29/07:00pm 9.7 WSW 7 10 1027.5 - 0.0 - - 10 - - - -
29/06:30pm 10.7 W 10 13 1027.3 - 0.0 - - 10 - - - -
29/06:00pm 10.2 SSW 5 9 1027.3 - 0.0 - - 10 - - - -
29/05:30pm 10.9 WSW 5 8 1027.2 - 0.0 - - 10 - - - -
29/05:00pm 12.7 WNW 14 16 1026.9 - 0.0 - - 10 - - - -
29/04:30pm 13.0 NW 13 15 1027.1 - 0.0 - - 10 - - - -
29/04:00pm 13.2 NW 13 16 1027.1 - 0.0 - - 10 - - - -
29/03:30pm 13.7 NW 14 17 1027.1 - 0.0 - - 10 - - - -

Other Formats:

Comma delimited format used in spreadsheet applications
http://www.bom.gov.au/fwo/IDV60701/IDV60701.95960.axf

JavaScript Object Notation format (JSON) in row-major order
http://www.bom.gov.au/fwo/IDV60701/IDV60701.95960.json